CMA CGM Homere — MQBL6 — position and weather

sailwx.info

Track history (hours):
 
Tides and Currents Weather Stations Pressure Air Temp Water Temp Dewpoint Dewpoint Depression Visibility Wind Speed Wind Dir Waves Ship Positions

CMA CGM Homere

Last reported at 2015-Apr-18 12:13 UTC. Time now 2015-Apr-19 07:57 UTC.
Position N 13°11' W 062°21'.

Length 170 m; draft 8.2 m.

Type: Ship (hazmat cat A). MMSI: 235052314.

Date/timePositionNaut miles runAvg speedWind from/ knotsBaromVisibWave heightAir tempDewpointWater temp
2015-Apr-18 12:13N 13°11' W 062°21'26818.2
2015-Apr-17 21:30N 17°36' W 063°05'1718.1
2015-Apr-17 20:32N 17°53' W 063°05'7 1.2
2015-Apr-17 14:22N 18°01' W 063°03'0 0.0
2015-Apr-17 12:08N 18°01' W 063°03'0 0.0
2015-Apr-17 06:26N 18°01' W 063°03'1 0.7
2015-Apr-17 04:32N 18°00' W 063°04'2 2.1
2015-Apr-17 03:32N 17°58' W 063°05'  
2015-Apr-09 13:33N 48°39' W 007°49'1918.8
2015-Apr-09 12:33N 48°45' W 007°21'1918.9
2015-Apr-09 11:33N 48°50' W 006°54'1918.7
2015-Apr-09 10:34N 48°55' W 006°27'1918.6
2015-Apr-09 09:34N 49°02' W 006°00'1818.1
2015-Apr-09 08:34N 49°09' W 005°35'1615.8
2015-Apr-09 07:34N 49°16' W 005°13'1312.6
2015-Apr-09 06:34N 49°22' W 004°56'1514.5
2015-Apr-09 05:33N 49°28' W 004°36'3717.6
2015-Apr-09 03:28N 49°45' W 003°45'2418.4
2015-Apr-09 02:12N 49°56' W 003°13'1218.1
2015-Apr-09 01:31N 50°00' W 002°55'1717.8
2015-Apr-09 00:33N 50°04' W 002°29'1715.9
2015-Apr-08 23:27N 50°05' W 002°02'1313.3
2015-Apr-08 22:30N 49°59' W 001°44'1913.7
2015-Apr-08 21:09N 49°51' W 001°18'813.8
2015-Apr-08 20:33N 49°48' W 001°07'1616.1
2015-Apr-08 19:33N 49°42' W 000°44'1817.8
2015-Apr-08 18:33N 49°35' W 000°19'1615.5
2015-Apr-08 17:33N 49°29' E 000°04'4 4.0
2015-Apr-08 16:33N 49°29' E 000°10'0 0.0
2015-Apr-08 15:33N 49°29' E 000°10'0 0.0
2015-Apr-08 14:33N 49°29' E 000°10'0 0.0
2015-Apr-08 13:33N 49°29' E 000°10'0 0.0
2015-Apr-08 12:33N 49°29' E 000°10'  
Track history (hours):
 
Tides and Currents Weather Stations Pressure Air Temp Water Temp Dewpoint Dewpoint Depression Visibility Wind Speed Wind Dir Waves Ship Positions

CMA CGM Homere

Last reported at 2015-Apr-18 12:13 UTC. Time now 2015-Apr-19 07:57 UTC.
Position N 13°11' W 062°21'.

Length 170 m; draft 8.2 m.

Type: Ship (hazmat cat A). MMSI: 235052314.

Date/timePositionNaut miles runAvg speedWind from/ knotsBaromVisibWave heightAir tempDewpointWater temp
2015-Apr-18 12:13N 13°11' W 062°21'26818.2
2015-Apr-17 21:30N 17°36' W 063°05'1718.1
2015-Apr-17 20:32N 17°53' W 063°05'7 1.2
2015-Apr-17 14:22N 18°01' W 063°03'0 0.0
2015-Apr-17 12:08N 18°01' W 063°03'0 0.0
2015-Apr-17 06:26N 18°01' W 063°03'1 0.7
2015-Apr-17 04:32N 18°00' W 063°04'2 2.1
2015-Apr-17 03:32N 17°58' W 063°05'  
2015-Apr-09 13:33N 48°39' W 007°49'1918.8
2015-Apr-09 12:33N 48°45' W 007°21'1918.9
2015-Apr-09 11:33N 48°50' W 006°54'1918.7
2015-Apr-09 10:34N 48°55' W 006°27'1918.6
2015-Apr-09 09:34N 49°02' W 006°00'1818.1
2015-Apr-09 08:34N 49°09' W 005°35'1615.8
2015-Apr-09 07:34N 49°16' W 005°13'1312.6
2015-Apr-09 06:34N 49°22' W 004°56'1514.5
2015-Apr-09 05:33N 49°28' W 004°36'3717.6
2015-Apr-09 03:28N 49°45' W 003°45'2418.4
2015-Apr-09 02:12N 49°56' W 003°13'1218.1
2015-Apr-09 01:31N 50°00' W 002°55'1717.8
2015-Apr-09 00:33N 50°04' W 002°29'1715.9
2015-Apr-08 23:27N 50°05' W 002°02'1313.3
2015-Apr-08 22:30N 49°59' W 001°44'1913.7
2015-Apr-08 21:09N 49°51' W 001°18'813.8
2015-Apr-08 20:33N 49°48' W 001°07'1616.1
2015-Apr-08 19:33N 49°42' W 000°44'1817.8
2015-Apr-08 18:33N 49°35' W 000°19'1615.5
2015-Apr-08 17:33N 49°29' E 000°04'4 4.0
2015-Apr-08 16:33N 49°29' E 000°10'0 0.0
2015-Apr-08 15:33N 49°29' E 000°10'0 0.0
2015-Apr-08 14:33N 49°29' E 000°10'0 0.0
2015-Apr-08 13:33N 49°29' E 000°10'0 0.0
2015-Apr-08 12:33N 49°29' E 000°10'  

Dump ship's entire track history